Time;durP1;ratioP1;P1;durP2;ratioP2;P2;SDS_P1;SDS_P2;PMS_P1;PMS_P2;Temp;Humidity;BMP_temperature;BMP_pressure;BME280_temperature;BME280_humidity;BME280_pressure;Samples;Min_cycle;Max_cycle;Signal;HPM_P1;HPM_P2
2021/01/22 00:00:39;;;;;;;1.10;0.60;;;10.30;69.70;;;;;;5023138;28;20030;-65
2021/01/22 00:03:05;;;;;;;0.50;0.50;;;10.30;69.80;;;;;;5026142;28;20021;-65
2021/01/22 00:05:30;;;;;;;0.60;0.57;;;10.30;69.60;;;;;;5028688;28;20041;-65
2021/01/22 00:07:56;;;;;;;1.85;0.50;;;10.30;69.50;;;;;;5042463;28;20055;-66
2021/01/22 00:10:21;;;;;;;0.50;0.50;;;10.30;69.10;;;;;;5042773;28;20030;-66
2021/01/22 00:12:47;;;;;;;0.40;0.40;;;10.40;68.80;;;;;;5040561;28;20428;-66
2021/01/22 00:15:13;;;;;;;1.13;0.60;;;10.40;68.50;;;;;;5039561;28;20397;-66
2021/01/22 00:17:38;;;;;;;0.50;0.50;;;10.50;68.40;;;;;;5044311;28;20084;-66
2021/01/22 00:20:05;;;;;;;0.60;0.60;;;10.50;68.30;;;;;;5035225;28;20053;-65
2021/01/22 00:22:31;;;;;;;0.40;0.40;;;10.50;68.40;;;;;;5046755;28;20029;-67
2021/01/22 00:24:56;;;;;;;0.50;0.50;;;10.50;68.00;;;;;;5029626;28;20033;-67
2021/01/22 00:27:22;;;;;;;0.63;0.50;;;10.60;68.40;;;;;;5034145;28;20717;-66
2021/01/22 00:29:47;;;;;;;0.50;0.50;;;10.60;68.50;;;;;;5033755;28;20029;-67
2021/01/22 00:32:13;;;;;;;0.30;0.30;;;10.60;68.50;;;;;;5033049;28;20063;-67
2021/01/22 00:34:38;;;;;;;0.52;0.52;;;10.60;68.70;;;;;;5032988;28;20025;-67
2021/01/22 00:37:04;;;;;;;0.57;0.50;;;10.50;68.70;;;;;;5033884;28;20021;-67
2021/01/22 00:39:29;;;;;;;0.47;0.47;;;10.50;68.90;;;;;;5034131;28;20476;-66
2021/01/22 00:41:55;;;;;;;0.60;0.40;;;10.50;68.70;;;;;;5033388;28;20018;-67
2021/01/22 00:44:21;;;;;;;0.57;0.50;;;10.50;68.70;;;;;;5032993;28;20057;-66
2021/01/22 00:46:46;;;;;;;0.60;0.60;;;10.50;68.70;;;;;;5034966;28;20432;-66
2021/01/22 00:49:12;;;;;;;0.60;0.40;;;10.50;68.70;;;;;;5034123;28;20417;-67
2021/01/22 00:51:37;;;;;;;0.50;0.50;;;10.40;68.80;;;;;;5033010;28;20065;-66
2021/01/22 00:54:03;;;;;;;0.50;0.50;;;10.40;68.50;;;;;;5047252;28;20075;-66
2021/01/22 00:56:29;;;;;;;1.90;0.70;;;10.50;68.20;;;;;;5033136;28;20104;-66
2021/01/22 00:58:54;;;;;;;0.50;0.50;;;10.50;68.30;;;;;;5033210;28;20116;-66
2021/01/22 01:01:20;;;;;;;1.10;0.70;;;10.50;68.40;;;;;;5031116;28;20060;-67
2021/01/22 01:03:45;;;;;;;0.65;0.65;;;10.50;68.40;;;;;;5033051;28;20040;-67
2021/01/22 01:06:11;;;;;;;1.95;0.70;;;10.50;68.10;;;;;;5035390;28;20033;-66
2021/01/22 01:08:36;;;;;;;0.60;0.60;;;10.50;68.10;;;;;;5044045;28;20367;-67
2021/01/22 01:11:02;;;;;;;0.82;0.60;;;10.50;68.10;;;;;;5034091;28;20049;-67
2021/01/22 01:13:28;;;;;;;0.60;0.60;;;10.50;68.20;;;;;;5046045;28;20056;-66
2021/01/22 01:15:53;;;;;;;0.70;0.70;;;10.50;68.30;;;;;;5035227;28;20029;-66
2021/01/22 01:18:19;;;;;;;0.50;0.50;;;10.50;68.30;;;;;;5032907;28;20026;-67
2021/01/22 01:20:44;;;;;;;0.80;0.70;;;10.40;68.30;;;;;;5027869;28;20056;-67
2021/01/22 01:23:14;;;;;;;0.47;0.47;;;10.40;68.30;;;;;;5022817;28;20033;-67
2021/01/22 01:25:41;;;;;;;0.47;0.47;;;10.40;68.40;;;;;;5031298;28;20034;-67
2021/01/22 01:28:06;;;;;;;1.25;0.73;;;10.40;68.30;;;;;;5032441;28;20025;-67
2021/01/22 01:30:34;;;;;;;2.53;0.57;;;10.40;68.20;;;;;;5036686;28;20474;-67
2021/01/22 01:32:59;;;;;;;0.50;0.50;;;10.50;68.40;;;;;;5031506;28;20021;-67
2021/01/22 01:35:25;;;;;;;0.50;0.47;;;10.50;68.30;;;;;;5031472;28;20033;-67
2021/01/22 01:37:51;;;;;;;0.57;0.57;;;10.50;68.20;;;;;;5032220;28;20017;-67
2021/01/22 01:40:16;;;;;;;0.90;0.50;;;10.50;68.10;;;;;;5032574;28;20021;-66
2021/01/22 01:42:42;;;;;;;0.47;0.40;;;10.50;68.10;;;;;;5032397;28;20109;-66
2021/01/22 01:45:08;;;;;;;0.40;0.40;;;10.50;68.10;;;;;;5031221;28;20104;-67
2021/01/22 01:47:33;;;;;;;0.40;0.40;;;10.50;68.00;;;;;;5033329;28;20026;-66
2021/01/22 01:49:59;;;;;;;0.73;0.40;;;10.50;67.80;;;;;;5019611;28;20018;-67
2021/01/22 01:52:25;;;;;;;0.60;0.50;;;10.50;67.80;;;;;;5032734;28;20111;-66
2021/01/22 01:54:51;;;;;;;0.65;0.45;;;10.50;67.80;;;;;;5030798;28;20469;-66
2021/01/22 01:57:17;;;;;;;2.75;0.40;;;10.50;67.60;;;;;;5032176;28;20524;-67
2021/01/22 01:59:43;;;;;;;0.30;0.30;;;10.50;67.50;;;;;;5041546;28;20517;-66
2021/01/22 02:02:10;;;;;;;0.43;0.40;;;10.60;67.20;;;;;;5039758;28;20108;-67
2021/01/22 02:04:36;;;;;;;0.40;0.40;;;10.60;67.20;;;;;;5019484;28;20025;-67
2021/01/22 02:07:02;;;;;;;0.30;0.30;;;10.60;67.20;;;;;;5031510;28;20026;-67
2021/01/22 02:09:28;;;;;;;0.45;0.43;;;10.60;67.10;;;;;;5031633;28;20037;-67
2021/01/22 02:11:54;;;;;;;0.40;0.30;;;10.60;66.90;;;;;;5031997;28;20124;-67
2021/01/22 02:14:20;;;;;;;1.38;0.40;;;10.60;66.80;;;;;;5030348;28;20453;-67
2021/01/22 02:16:46;;;;;;;0.82;0.52;;;10.60;66.90;;;;;;5030672;28;20064;-66
2021/01/22 02:19:14;;;;;;;0.40;0.40;;;10.60;67.00;;;;;;5040121;28;20053;-67
2021/01/22 02:21:40;;;;;;;0.90;0.40;;;10.60;67.00;;;;;;5028325;28;20379;-67
2021/01/22 02:24:06;;;;;;;0.47;0.45;;;10.60;67.10;;;;;;5011579;28;20116;-66
2021/01/22 02:26:31;;;;;;;0.45;0.35;;;10.60;66.90;;;;;;5014666;28;20167;-66
2021/01/22 02:29:03;;;;;;;0.50;0.40;;;10.60;66.90;;;;;;5047794;28;20032;-66
2021/01/22 02:31:31;;;;;;;0.40;0.40;;;10.60;66.90;;;;;;5029946;28;20053;-67
2021/01/22 02:34:05;;;;;;;0.50;0.50;;;10.60;66.90;;;;;;5013805;28;20053;-66
2021/01/22 02:36:34;;;;;;;1.20;0.40;;;10.60;66.80;;;;;;5031290;28;20033;-67
2021/01/22 02:39:03;;;;;;;2.35;0.57;;;10.60;66.60;;;;;;5031481;28;20025;-67
2021/01/22 02:41:30;;;;;;;0.55;0.52;;;10.60;66.80;;;;;;5030860;28;20437;-67
2021/01/22 02:43:56;;;;;;;0.65;0.50;;;10.60;66.70;;;;;;5041223;28;20026;-66
2021/01/22 02:46:23;;;;;;;0.65;0.40;;;10.60;66.70;;;;;;5030927;28;20039;-67
2021/01/22 02:48:49;;;;;;;0.43;0.40;;;10.60;66.40;;;;;;5041916;28;20029;-66
2021/01/22 02:51:15;;;;;;;1.90;0.50;;;10.60;66.50;;;;;;5030357;28;20067;-67
2021/01/22 02:53:41;;;;;;;3.45;0.50;;;10.60;66.60;;;;;;5045132;28;20025;-66
2021/01/22 02:56:17;;;;;;;2.20;0.80;;;10.60;66.50;;;;;;5014577;28;20320;-66
2021/01/22 02:59:18;;;;;;;1.63;0.50;;;10.60;66.20;;;;;;5031275;28;20026;-67
2021/01/22 03:01:56;;;;;;;0.40;0.40;;;10.60;66.10;;;;;;5016738;28;20057;-66
2021/01/22 03:04:26;;;;;;;1.30;0.60;;;10.60;66.30;;;;;;5031504;28;20076;-67
2021/01/22 03:06:52;;;;;;;2.28;0.60;;;10.60;65.80;;;;;;5046821;28;20047;-66
2021/01/22 03:09:19;;;;;;;0.85;0.50;;;10.60;66.00;;;;;;5017238;28;20409;-66
2021/01/22 03:11:49;;;;;;;1.33;0.57;;;10.60;65.80;;;;;;5033626;28;20440;-66
2021/01/22 03:14:16;;;;;;;2.83;0.82;;;10.70;65.90;;;;;;5030814;28;20053;-67
2021/01/22 03:16:42;;;;;;;2.17;0.80;;;10.60;65.80;;;;;;5030485;28;20040;-67
2021/01/22 03:19:08;;;;;;;2.00;0.60;;;10.60;65.50;;;;;;5030727;28;20501;-67
2021/01/22 03:21:33;;;;;;;2.53;0.60;;;10.60;65.50;;;;;;5026205;28;20022;-66
2021/01/22 03:23:59;;;;;;;2.33;0.77;;;10.70;65.40;;;;;;5043005;28;20053;-66
2021/01/22 03:26:25;;;;;;;4.15;0.65;;;10.60;65.40;;;;;;5037815;28;20064;-66
2021/01/22 03:28:50;;;;;;;1.65;0.60;;;10.70;65.60;;;;;;5030778;28;20034;-66
2021/01/22 03:31:16;;;;;;;2.92;0.77;;;10.60;65.60;;;;;;5012833;28;20076;-66
2021/01/22 03:33:42;;;;;;;2.45;0.70;;;10.60;65.40;;;;;;5030124;28;20501;-66
2021/01/22 03:36:08;;;;;;;2.47;0.90;;;10.60;65.40;;;;;;5035523;28;20029;-66
2021/01/22 03:38:34;;;;;;;1.63;0.75;;;10.60;65.50;;;;;;5032987;28;20025;-66
2021/01/22 03:41:00;;;;;;;1.42;0.70;;;10.60;65.60;;;;;;5030128;28;20056;-66
2021/01/22 03:43:26;;;;;;;2.75;0.70;;;10.50;65.70;;;;;;5031740;28;20061;-66
2021/01/22 03:45:52;;;;;;;2.22;0.63;;;10.50;65.50;;;;;;5029154;28;20084;-66
2021/01/22 03:48:18;;;;;;;3.03;0.70;;;10.50;65.40;;;;;;5031672;28;20033;-66
2021/01/22 03:50:43;;;;;;;2.38;0.82;;;10.40;65.50;;;;;;5034455;28;20424;-67
2021/01/22 03:53:10;;;;;;;5.03;1.00;;;10.50;65.60;;;;;;5034335;28;20100;-65
2021/01/22 03:55:35;;;;;;;2.17;0.68;;;10.40;65.40;;;;;;5015887;28;20025;-65
2021/01/22 03:58:01;;;;;;;3.35;0.70;;;10.40;65.50;;;;;;5037080;28;20025;-65
2021/01/22 04:00:27;;;;;;;5.20;1.05;;;10.40;65.50;;;;;;5068357;23;20127;-88
2021/01/22 04:02:52;;;;;;;3.45;1.30;;;10.40;65.30;;;;;;5038615;28;20111;-88
2021/01/22 04:05:18;;;;;;;5.45;1.13;;;10.40;65.00;;;;;;5038665;28;20028;-88
2021/01/22 04:07:44;;;;;;;4.75;1.00;;;10.40;65.30;;;;;;5044855;28;20029;-89
2021/01/22 04:10:10;;;;;;;4.45;1.17;;;10.30;65.10;;;;;;5058442;28;20034;-89
2021/01/22 04:12:35;;;;;;;2.90;0.80;;;10.30;65.10;;;;;;5036239;28;20495;-89
2021/01/22 04:15:05;;;;;;;2.60;0.90;;;10.40;65.10;;;;;;5027251;28;20030;-87
2021/01/22 04:17:31;;;;;;;3.70;1.27;;;10.30;65.20;;;;;;5029196;28;20032;-87
2021/01/22 04:19:57;;;;;;;2.00;0.70;;;10.40;65.30;;;;;;5031168;28;20391;-88
2021/01/22 04:22:23;;;;;;;5.13;1.10;;;10.30;65.50;;;;;;5029297;28;20029;-88
2021/01/22 04:24:48;;;;;;;6.20;1.33;;;10.30;65.30;;;;;;5042128;28;20498;-88
2021/01/22 04:27:14;;;;;;;7.88;1.02;;;10.30;65.30;;;;;;5040218;28;20029;-88
2021/01/22 04:29:39;;;;;;;4.85;0.90;;;10.30;65.30;;;;;;5039542;28;20522;-87
2021/01/22 04:32:07;;;;;;;4.38;0.98;;;10.30;65.20;;;;;;5039117;28;20021;-88
2021/01/22 04:34:33;;;;;;;2.83;0.82;;;10.30;65.20;;;;;;5029538;28;20128;-88
2021/01/22 04:36:58;;;;;;;6.05;0.90;;;10.30;65.20;;;;;;5037997;28;20477;-88
2021/01/22 04:39:24;;;;;;;7.05;1.13;;;10.30;65.30;;;;;;5037912;28;20078;-88
2021/01/22 04:41:51;;;;;;;1.65;0.82;;;10.30;65.00;;;;;;5020155;28;20121;-88
2021/01/22 04:44:16;;;;;;;3.17;1.00;;;10.30;65.20;;;;;;5036550;28;20075;-88
2021/01/22 04:46:44;;;;;;;1.52;0.60;;;10.30;65.10;;;;;;5026852;28;20028;-88
2021/01/22 04:49:10;;;;;;;3.25;0.70;;;10.30;65.30;;;;;;5031691;28;20025;-88
2021/01/22 04:51:36;;;;;;;4.60;1.00;;;10.30;65.30;;;;;;5037994;28;20483;-87
2021/01/22 04:54:23;;;;;;;2.53;0.93;;;10.20;65.50;;;;;;5037414;28;20092;-87
2021/01/22 04:56:51;;;;;;;4.63;0.90;;;10.30;65.30;;;;;;5037633;28;20391;-87
2021/01/22 04:59:29;;;;;;;2.30;1.00;;;10.20;65.40;;;;;;5027692;28;20017;-87
2021/01/22 05:01:55;;;;;;;3.38;0.90;;;10.20;65.30;;;;;;5029444;28;20048;-88
2021/01/22 05:04:23;;;;;;;6.68;0.93;;;10.20;65.40;;;;;;5031935;28;20474;-88
2021/01/22 05:06:49;;;;;;;5.55;1.10;;;10.10;65.40;;;;;;5037280;28;20032;-87
2021/01/22 05:09:15;;;;;;;3.03;0.90;;;10.10;65.30;;;;;;5036127;28;20026;-89
2021/01/22 05:11:41;;;;;;;4.68;1.17;;;10.10;65.50;;;;;;5036661;28;20118;-89
2021/01/22 05:14:07;;;;;;;2.70;1.05;;;10.10;65.20;;;;;;5031987;28;20514;-87
2021/01/22 05:16:33;;;;;;;2.38;1.20;;;10.10;65.30;;;;;;5035783;28;20410;-87
2021/01/22 05:19:18;;;;;;;3.28;0.73;;;10.00;65.50;;;;;;5036925;28;20036;-87
2021/01/22 05:21:43;;;;;;;5.07;1.13;;;10.00;65.40;;;;;;5037072;28;20031;-89
2021/01/22 05:24:20;;;;;;;3.88;0.95;;;10.00;65.30;;;;;;5036929;28;20044;-87
2021/01/22 05:26:46;;;;;;;4.75;1.25;;;9.90;65.40;;;;;;5048784;28;20025;-89
2021/01/22 05:29:15;;;;;;;4.97;1.10;;;9.90;65.40;;;;;;5025341;28;20032;-87
2021/01/22 05:31:41;;;;;;;8.20;1.70;;;9.90;65.50;;;;;;5021653;28;20043;-88
2021/01/22 05:34:07;;;;;;;2.80;1.10;;;9.90;65.20;;;;;;5036880;28;20037;-87
2021/01/22 05:36:33;;;;;;;4.85;1.17;;;9.80;65.30;;;;;;5032783;28;20021;-88
2021/01/22 05:39:04;;;;;;;5.93;1.13;;;9.90;65.60;;;;;;5016901;28;20028;-87
2021/01/22 05:41:29;;;;;;;4.18;0.88;;;9.80;65.60;;;;;;5045919;28;20033;-87
2021/01/22 05:43:56;;;;;;;6.25;1.05;;;9.80;65.80;;;;;;5036942;28;20018;-87
2021/01/22 05:46:23;;;;;;;4.50;1.35;;;9.70;65.60;;;;;;5017818;28;20041;-88
2021/01/22 05:49:13;;;;;;;6.00;1.15;;;9.70;65.70;;;;;;5036609;28;20029;-87
2021/01/22 05:51:40;;;;;;;2.60;0.90;;;9.70;65.80;;;;;;5036507;28;20512;-86
2021/01/22 05:54:05;;;;;;;3.15;0.90;;;9.60;65.60;;;;;;5036167;28;20025;-87
2021/01/22 05:56:31;;;;;;;2.28;1.10;;;9.60;65.70;;;;;;5030785;28;20653;-88
2021/01/22 05:58:57;;;;;;;1.95;0.73;;;9.60;65.80;;;;;;5016191;28;20051;-88
2021/01/22 06:01:26;;;;;;;4.40;0.93;;;9.60;65.70;;;;;;5033276;28;20064;-88
2021/01/22 06:04:06;;;;;;;4.13;0.80;;;9.60;65.80;;;;;;5035479;28;20040;-88
2021/01/22 06:06:32;;;;;;;3.13;0.73;;;9.50;65.70;;;;;;5036467;28;20029;-88
2021/01/22 06:08:59;;;;;;;3.38;0.95;;;9.50;65.60;;;;;;5035982;28;20382;-88
2021/01/22 06:11:26;;;;;;;5.05;0.85;;;9.50;65.70;;;;;;5035495;28;20120;-89
2021/01/22 06:13:53;;;;;;;2.05;0.80;;;9.50;65.70;;;;;;5035669;28;20458;-88
2021/01/22 06:16:20;;;;;;;3.20;1.20;;;9.50;65.80;;;;;;5035979;28;20028;-87
2021/01/22 06:18:56;;;;;;;2.00;1.00;;;9.50;65.70;;;;;;5027407;28;20029;-88
2021/01/22 06:21:57;;;;;;;2.28;0.85;;;9.50;65.90;;;;;;5033352;28;20025;-87
2021/01/22 06:24:23;;;;;;;1.23;0.80;;;9.50;66.50;;;;;;5034882;28;20029;-88
2021/01/22 06:26:50;;;;;;;2.20;0.73;;;9.50;65.90;;;;;;5034171;28;20074;-88
2021/01/22 06:29:17;;;;;;;2.38;0.70;;;9.60;66.10;;;;;;5021925;28;20025;-88
2021/01/22 06:31:44;;;;;;;4.55;1.20;;;9.60;66.10;;;;;;5034717;28;20033;-86
2021/01/22 06:34:10;;;;;;;2.40;0.70;;;9.50;66.10;;;;;;5035379;28;20021;-88
2021/01/22 06:36:38;;;;;;;1.95;1.10;;;9.50;66.10;;;;;;5035119;28;20111;-88
2021/01/22 06:39:05;;;;;;;1.45;0.73;;;9.50;66.20;;;;;;5035688;28;20502;-87
2021/01/22 06:41:31;;;;;;;2.20;0.60;;;9.60;66.30;;;;;;5035925;28;20064;-86
2021/01/22 06:43:58;;;;;;;1.65;0.65;;;9.50;67.00;;;;;;5024347;28;20056;-86
2021/01/22 06:46:31;;;;;;;2.55;0.60;;;9.60;66.30;;;;;;5017538;28;20026;-87
2021/01/22 06:49:02;;;;;;;2.00;0.60;;;9.60;66.40;;;;;;5054198;28;20025;-87
2021/01/22 06:51:37;;;;;;;2.60;1.88;;;9.60;66.50;;;;;;5027440;28;20506;-86
2021/01/22 06:54:18;;;;;;;1.45;0.80;;;9.60;66.40;;;;;;5032469;28;20033;-87
2021/01/22 06:56:44;;;;;;;1.13;0.60;;;9.60;66.40;;;;;;5021815;28;20029;-86
2021/01/22 06:59:22;;;;;;;2.00;0.70;;;9.60;66.40;;;;;;5016331;28;20084;-86
2021/01/22 07:01:49;;;;;;;1.52;0.80;;;9.60;66.60;;;;;;5017197;28;20476;-86
2021/01/22 07:04:33;;;;;;;3.10;0.82;;;9.70;66.50;;;;;;5016441;28;20328;-86
2021/01/22 07:07:05;;;;;;;1.48;0.70;;;9.70;66.60;;;;;;5016030;28;20041;-87
2021/01/22 07:09:40;;;;;;;1.80;0.90;;;9.70;66.30;;;;;;5016184;28;20026;-87
2021/01/22 07:12:06;;;;;;;1.85;1.17;;;9.70;66.30;;;;;;5016523;28;20064;-87
2021/01/22 07:14:37;;;;;;;2.50;1.20;;;9.80;66.30;;;;;;5016396;28;20056;-87
2021/01/22 07:17:30;;;;;;;2.92;0.98;;;9.80;66.20;;;;;;5015775;28;20373;-88
2021/01/22 07:20:12;;;;;;;1.40;0.70;;;9.80;66.30;;;;;;5005444;28;20341;-87
2021/01/22 07:22:55;;;;;;;2.25;1.05;;;9.80;66.30;;;;;;5015868;28;20022;-87
2021/01/22 07:25:31;;;;;;;;;;;9.80;66.10;;;;;;5015734;28;20391;-86
2021/01/22 07:28:01;;;;;;;0.68;0.68;;;9.90;66.20;;;;;;5016141;28;19912;-87
2021/01/22 07:30:37;;;;;;;1.63;0.70;;;9.90;66.20;;;;;;5015612;28;20532;-86
2021/01/22 07:33:25;;;;;;;1.40;0.70;;;9.90;66.70;;;;;;5015796;28;20025;-87
2021/01/22 07:36:02;;;;;;;2.38;0.80;;;10.00;66.00;;;;;;5015742;28;20083;-86
2021/01/22 07:38:28;;;;;;;3.42;1.05;;;10.10;65.50;;;;;;5027148;28;20029;-85
2021/01/22 07:40:55;;;;;;;1.95;0.80;;;10.20;65.50;;;;;;5024648;28;20040;-86
2021/01/22 07:43:22;;;;;;;4.38;1.45;;;10.20;65.50;;;;;;5034870;28;20426;-86
2021/01/22 07:45:50;;;;;;;3.95;1.10;;;10.20;65.10;;;;;;5031063;28;20029;-86
2021/01/22 07:48:28;;;;;;;2.05;0.60;;;10.20;65.20;;;;;;5019929;28;20032;-86
2021/01/22 07:50:54;;;;;;;5.93;0.85;;;10.20;65.10;;;;;;5024181;28;20026;-85
2021/01/22 07:53:20;;;;;;;2.03;0.98;;;10.20;65.30;;;;;;5024957;28;20040;-86
2021/01/22 07:55:54;;;;;;;2.05;0.70;;;10.30;65.00;;;;;;5033969;28;20103;-87
2021/01/22 07:58:20;;;;;;;1.25;0.88;;;10.20;65.30;;;;;;5034301;28;20044;-87
2021/01/22 08:00:46;;;;;;;6.00;1.00;;;10.20;65.20;;;;;;5028471;28;20120;-88
2021/01/22 08:03:13;;;;;;;1.15;0.70;;;10.10;65.30;;;;;;5025661;28;20072;-87
2021/01/22 08:05:40;;;;;;;2.45;0.82;;;10.10;65.30;;;;;;5029236;28;20410;-88
2021/01/22 08:08:17;;;;;;;2.63;0.80;;;10.20;65.20;;;;;;5033779;28;20380;-87
2021/01/22 08:10:43;;;;;;;4.97;0.88;;;10.10;65.40;;;;;;5034950;28;20020;-87
2021/01/22 08:13:09;;;;;;;2.83;0.80;;;10.20;65.50;;;;;;5033481;28;20036;-88
2021/01/22 08:15:35;;;;;;;4.03;0.73;;;10.20;65.40;;;;;;5017002;28;20033;-87
2021/01/22 08:18:05;;;;;;;4.35;0.88;;;10.20;65.20;;;;;;5031993;28;20025;-87
2021/01/22 08:20:31;;;;;;;3.33;0.75;;;10.20;65.10;;;;;;5035627;28;20108;-87
2021/01/22 08:22:57;;;;;;;3.85;0.70;;;10.20;65.00;;;;;;5044449;28;20480;-88
2021/01/22 08:25:36;;;;;;;2.08;0.70;;;10.20;64.60;;;;;;5033963;28;20086;-87
2021/01/22 08:28:07;;;;;;;1.90;0.90;;;10.30;64.70;;;;;;5033967;28;20025;-87
2021/01/22 08:30:34;;;;;;;4.57;1.98;;;10.30;64.60;;;;;;5033605;28;20021;-87
2021/01/22 08:33:00;;;;;;;2.47;0.73;;;10.30;64.70;;;;;;5021090;28;20026;-87
2021/01/22 08:35:27;;;;;;;1.38;0.50;;;10.40;64.20;;;;;;5018241;28;20049;-87
2021/01/22 08:38:01;;;;;;;4.05;1.20;;;10.50;64.00;;;;;;5018180;28;20195;-87
2021/01/22 08:40:46;;;;;;;4.43;0.90;;;10.50;64.00;;;;;;5034849;28;20024;-87
2021/01/22 08:43:12;;;;;;;4.72;1.10;;;10.50;63.90;;;;;;5020463;28;20048;-88
2021/01/22 08:45:39;;;;;;;2.78;0.70;;;10.60;63.40;;;;;;5037834;28;20063;-88
2021/01/22 08:48:05;;;;;;;4.18;0.95;;;10.60;63.40;;;;;;5033151;28;20229;-86
2021/01/22 08:50:31;;;;;;;3.58;0.90;;;10.70;63.10;;;;;;5017573;28;20072;-87
2021/01/22 08:53:14;;;;;;;1.98;0.70;;;10.80;62.80;;;;;;5018172;28;20164;-87
2021/01/22 08:55:40;;;;;;;2.78;1.10;;;10.90;62.80;;;;;;5022057;28;20025;-87
2021/01/22 08:58:11;;;;;;;3.65;0.82;;;10.90;62.70;;;;;;5023788;28;20025;-87
2021/01/22 09:00:38;;;;;;;6.95;1.23;;;10.90;62.70;;;;;;5033664;28;20480;-87
2021/01/22 09:03:16;;;;;;;4.03;1.10;;;11.00;62.60;;;;;;5025544;28;20061;-87
2021/01/22 09:05:52;;;;;;;3.13;0.88;;;11.00;62.60;;;;;;5026963;28;20067;-89
2021/01/22 09:08:20;;;;;;;3.67;1.00;;;11.10;62.80;;;;;;5028077;28;20045;-87
2021/01/22 09:10:46;;;;;;;1.38;0.85;;;11.10;62.70;;;;;;5017557;28;20483;-88
2021/01/22 09:13:24;;;;;;;2.58;0.88;;;11.20;62.90;;;;;;5026488;28;20039;-87
2021/01/22 09:16:06;;;;;;;3.10;1.00;;;11.20;62.30;;;;;;5027845;28;20040;-86
2021/01/22 09:18:32;;;;;;;1.85;0.85;;;11.30;62.20;;;;;;5029399;28;20079;-88
2021/01/22 09:20:59;;;;;;;1.58;0.90;;;11.40;62.40;;;;;;5032633;28;20428;-87
2021/01/22 09:23:26;;;;;;;4.18;0.90;;;11.40;62.10;;;;;;5025488;28;20031;-86
2021/01/22 09:25:52;;;;;;;3.72;1.05;;;11.50;61.90;;;;;;5036178;28;20032;-87
2021/01/22 09:28:17;;;;;;;1.73;0.90;;;11.60;61.60;;;;;;5019192;28;20068;-86
2021/01/22 09:30:43;;;;;;;1.00;0.60;;;11.60;61.70;;;;;;5019603;28;20491;-88
2021/01/22 09:33:09;;;;;;;2.90;1.00;;;11.70;61.30;;;;;;5024209;28;20082;-86
2021/01/22 09:35:34;;;;;;;2.47;0.82;;;11.70;61.10;;;;;;5035920;28;20025;-87
2021/01/22 09:38:00;;;;;;;3.67;0.88;;;11.70;61.20;;;;;;5018619;28;20033;-87
2021/01/22 09:40:26;;;;;;;2.63;0.70;;;11.80;60.70;;;;;;5036413;28;20029;-87
2021/01/22 09:42:52;;;;;;;2.00;0.68;;;11.80;60.80;;;;;;5034782;28;20116;-86
2021/01/22 09:45:19;;;;;;;2.17;0.90;;;11.90;60.80;;;;;;5035348;28;20106;-87
2021/01/22 09:47:45;;;;;;;4.28;0.73;;;11.90;60.40;;;;;;5035611;28;20451;-87
2021/01/22 09:50:14;;;;;;;3.65;0.85;;;11.90;60.70;;;;;;5035855;28;20536;-87
2021/01/22 09:52:39;;;;;;;2.90;0.80;;;12.00;60.30;;;;;;5033948;28;20084;-86
2021/01/22 09:55:10;;;;;;;2.28;0.82;;;11.90;59.90;;;;;;5033378;28;20476;-86
2021/01/22 09:57:35;;;;;;;3.50;1.30;;;12.00;60.10;;;;;;5034712;28;20485;-87
2021/01/22 10:02:29;;;;;;;3.47;0.88;;;12.00;60.40;;;;;;5019886;28;20045;-67
2021/01/22 10:04:54;;;;;;;6.45;0.80;;;12.10;60.30;;;;;;5024885;28;20032;-67
2021/01/22 10:07:20;;;;;;;3.13;0.70;;;12.10;60.20;;;;;;5031573;28;20021;-67
2021/01/22 10:09:46;;;;;;;3.53;0.82;;;12.20;60.20;;;;;;5031663;28;20033;-67
2021/01/22 10:12:13;;;;;;;3.40;1.08;;;12.30;60.30;;;;;;5030974;28;20039;-67
2021/01/22 10:14:38;;;;;;;4.03;0.90;;;12.30;59.90;;;;;;5030707;28;20481;-67
2021/01/22 10:17:04;;;;;;;4.05;1.20;;;12.30;60.00;;;;;;5031037;28;20107;-65
2021/01/22 10:19:29;;;;;;;4.43;0.95;;;12.30;59.60;;;;;;5031557;28;20037;-65
2021/01/22 10:21:55;;;;;;;4.40;0.80;;;12.30;59.70;;;;;;5030905;28;20369;-65
2021/01/22 10:24:20;;;;;;;2.25;0.77;;;12.30;59.20;;;;;;5012852;28;20108;-65
2021/01/22 10:26:46;;;;;;;3.97;1.00;;;12.30;59.40;;;;;;5029412;28;20033;-65
2021/01/22 10:29:12;;;;;;;2.33;0.70;;;12.20;59.60;;;;;;5031287;28;20021;-65
2021/01/22 10:31:38;;;;;;;4.05;0.90;;;12.20;59.60;;;;;;5030458;28;20031;-65
2021/01/22 10:34:04;;;;;;;2.28;0.77;;;12.20;59.90;;;;;;5028359;28;20037;-66
2021/01/22 10:36:29;;;;;;;2.03;0.73;;;12.20;60.00;;;;;;5030430;28;20029;-65
2021/01/22 10:38:55;;;;;;;3.13;1.42;;;12.20;60.00;;;;;;5030876;28;20029;-65
2021/01/22 10:41:21;;;;;;;6.20;1.40;;;12.30;59.90;;;;;;5030627;28;20024;-65
2021/01/22 10:43:47;;;;;;;4.63;1.17;;;12.30;60.10;;;;;;5030678;28;20081;-65
2021/01/22 10:46:12;;;;;;;3.17;1.20;;;12.30;60.20;;;;;;5030178;28;20033;-65
2021/01/22 10:48:38;;;;;;;7.45;1.98;;;12.30;60.00;;;;;;5030858;28;20477;-65
2021/01/22 10:51:05;;;;;;;1.45;0.70;;;12.30;60.20;;;;;;5030342;28;20029;-65
2021/01/22 10:53:33;;;;;;;3.22;0.85;;;12.40;60.40;;;;;;5030969;28;20417;-64
2021/01/22 10:55:59;;;;;;;2.55;0.95;;;12.40;60.40;;;;;;5022663;28;20029;-65
2021/01/22 10:58:25;;;;;;;5.00;0.90;;;12.40;60.20;;;;;;5020331;28;20032;-65
2021/01/22 11:00:53;;;;;;;2.20;0.68;;;12.40;60.10;;;;;;5019524;28;20466;-65
2021/01/22 11:03:18;;;;;;;2.80;0.90;;;12.40;60.00;;;;;;5016400;28;20049;-65
2021/01/22 11:05:44;;;;;;;1.05;0.70;;;12.50;59.90;;;;;;5018338;28;20053;-65
2021/01/22 11:08:09;;;;;;;1.48;0.80;;;12.50;60.10;;;;;;5026100;28;20030;-65
2021/01/22 11:10:35;;;;;;;2.75;0.90;;;12.50;60.30;;;;;;5029718;28;20533;-65
2021/01/22 11:13:02;;;;;;;4.93;1.38;;;12.50;60.00;;;;;;5011319;28;20124;-66
2021/01/22 11:15:28;;;;;;;2.13;0.77;;;12.50;60.10;;;;;;5025693;28;20037;-67
2021/01/22 11:17:53;;;;;;;3.85;1.85;;;12.60;60.20;;;;;;5010802;28;20100;-67
2021/01/22 11:20:19;;;;;;;4.22;0.73;;;12.60;60.10;;;;;;5012430;28;20025;-67
2021/01/22 11:22:46;;;;;;;3.20;0.95;;;12.60;60.20;;;;;;5031603;28;20477;-66
2021/01/22 11:25:13;;;;;;;5.05;1.00;;;12.60;60.00;;;;;;5030890;28;20024;-67
2021/01/22 11:27:38;;;;;;;2.55;0.60;;;12.70;59.80;;;;;;5036458;28;20032;-67
2021/01/22 11:30:06;;;;;;;4.78;0.85;;;12.70;59.70;;;;;;5037034;28;20030;-66
2021/01/22 11:32:31;;;;;;;3.25;0.70;;;12.80;59.90;;;;;;5020867;28;20029;-67
2021/01/22 11:34:57;;;;;;;2.35;0.70;;;12.90;59.60;;;;;;5029325;28;20497;-67
2021/01/22 11:37:22;;;;;;;3.05;0.80;;;13.00;59.60;;;;;;5030605;28;20040;-66
2021/01/22 11:39:48;;;;;;;2.03;0.60;;;13.10;59.40;;;;;;5029139;28;20037;-67
2021/01/22 11:42:13;;;;;;;2.40;0.70;;;13.10;59.50;;;;;;5029585;28;20033;-67
2021/01/22 11:44:39;;;;;;;2.58;0.80;;;13.20;59.20;;;;;;5027871;28;20370;-65
2021/01/22 11:47:05;;;;;;;3.88;1.17;;;13.20;59.10;;;;;;5029935;28;20025;-65
2021/01/22 11:49:31;;;;;;;4.00;1.38;;;13.30;58.70;;;;;;5029949;28;20053;-65
2021/01/22 11:51:57;;;;;;;7.78;1.10;;;13.40;58.80;;;;;;5029422;28;20060;-65
2021/01/22 11:54:22;;;;;;;4.15;1.40;;;13.40;58.60;;;;;;5029187;28;20025;-65
2021/01/22 11:56:50;;;;;;;3.33;1.20;;;13.50;58.60;;;;;;5030242;28;20485;-65
2021/01/22 11:59:17;;;;;;;3.22;0.93;;;13.60;58.50;;;;;;5029920;28;20022;-65
2021/01/22 12:01:43;;;;;;;4.63;1.33;;;13.70;58.10;;;;;;5018036;28;20032;-65
2021/01/22 12:04:08;;;;;;;2.35;1.00;;;13.70;57.90;;;;;;5021762;28;21004;-65
2021/01/22 12:06:34;;;;;;;3.63;1.50;;;13.70;57.60;;;;;;5030205;28;20025;-65
2021/01/22 12:09:00;;;;;;;3.53;1.70;;;13.70;57.70;;;;;;5027697;28;20057;-65
2021/01/22 12:11:26;;;;;;;3.63;0.93;;;13.70;58.10;;;;;;5015331;28;20123;-65
2021/01/22 12:13:52;;;;;;;1.73;0.80;;;13.70;57.70;;;;;;5032804;28;20025;-65
2021/01/22 12:16:18;;;;;;;1.02;0.80;;;13.60;57.90;;;;;;5032710;28;20025;-65
2021/01/22 12:18:43;;;;;;;5.72;0.98;;;13.60;58.10;;;;;;5033079;28;20108;-65
2021/01/22 12:21:10;;;;;;;3.40;0.60;;;13.60;58.00;;;;;;5036620;28;20064;-65
2021/01/22 12:23:36;;;;;;;1.20;0.60;;;13.60;58.10;;;;;;5015790;28;20025;-65
2021/01/22 12:26:02;;;;;;;0.90;0.73;;;13.60;58.30;;;;;;5020134;28;20136;-65
2021/01/22 12:28:28;;;;;;;1.58;0.75;;;13.60;58.00;;;;;;5033299;28;20104;-65
2021/01/22 12:30:54;;;;;;;2.97;1.10;;;13.70;57.80;;;;;;5032347;28;20108;-65
2021/01/22 12:33:20;;;;;;;1.30;0.90;;;13.70;58.40;;;;;;5031584;28;20482;-65
2021/01/22 12:35:49;;;;;;;1.80;0.60;;;13.80;58.20;;;;;;5031646;28;20064;-65
2021/01/22 12:38:16;;;;;;;0.52;0.47;;;13.80;57.80;;;;;;5032924;28;20087;-65
2021/01/22 12:40:42;;;;;;;1.23;0.50;;;13.80;58.10;;;;;;5033456;28;20363;-65
2021/01/22 12:43:07;;;;;;;0.77;0.40;;;13.90;57.90;;;;;;5032729;28;20044;-65
2021/01/22 12:45:33;;;;;;;3.10;0.60;;;14.00;57.40;;;;;;5031747;28;20056;-65
2021/01/22 12:47:58;;;;;;;1.67;0.50;;;14.00;57.60;;;;;;5032679;28;20691;-65
2021/01/22 12:50:24;;;;;;;2.85;0.50;;;14.00;57.00;;;;;;5032245;28;20448;-65
2021/01/22 12:52:49;;;;;;;1.67;0.47;;;14.00;57.00;;;;;;5032370;28;20391;-65